Time;durP1;ratioP1;P1;durP2;ratioP2;P2;SDS_P1;SDS_P2;PMS_P1;PMS_P2;Temp;Humidity;BMP_temperature;BMP_pressure;BME280_temperature;BME280_humidity;BME280_pressure;Samples;Min_cycle;Max_cycle;Signal;HPM_P1;HPM_P2
2023/06/11 00:00:56;;;;;;;5.40;5.00;;;23.60;84.70;;;;;;5036581;28;20945;-61
2023/06/11 00:03:23;;;;;;;4.33;4.03;;;23.60;84.70;;;;;;5036989;28;20477;-60
2023/06/11 00:05:51;;;;;;;5.63;5.23;;;23.60;84.70;;;;;;5042581;28;20496;-60
2023/06/11 00:08:18;;;;;;;4.90;4.57;;;23.60;84.70;;;;;;5037198;28;20482;-60
2023/06/11 00:10:45;;;;;;;5.00;4.60;;;23.60;84.70;;;;;;5038376;28;20462;-61
2023/06/11 00:13:12;;;;;;;4.77;4.47;;;23.60;84.70;;;;;;5037151;28;20458;-61
2023/06/11 00:15:38;;;;;;;4.80;4.40;;;23.60;84.70;;;;;;5041937;28;20470;-60
2023/06/11 00:18:06;;;;;;;4.47;4.17;;;23.60;84.80;;;;;;5039208;28;20468;-60
2023/06/11 00:20:41;;;;;;;4.77;4.43;;;23.60;84.70;;;;;;5031383;28;20467;-61
2023/06/11 00:23:08;;;;;;;4.90;4.60;;;23.60;84.70;;;;;;5033551;28;20548;-60
2023/06/11 00:25:35;;;;;;;4.83;4.50;;;23.60;84.70;;;;;;5034559;28;20450;-60
2023/06/11 00:28:01;;;;;;;4.83;4.43;;;23.60;84.80;;;;;;5034839;28;20509;-60
2023/06/11 00:30:28;;;;;;;4.50;4.20;;;23.60;84.70;;;;;;5042166;28;20458;-60
2023/06/11 00:32:55;;;;;;;4.63;4.23;;;23.60;84.70;;;;;;5039445;28;20508;-61
2023/06/11 00:35:23;;;;;;;4.43;4.13;;;23.60;84.70;;;;;;5039300;28;20450;-61
2023/06/11 00:37:50;;;;;;;4.87;4.47;;;23.60;84.80;;;;;;5038504;28;20984;-60
2023/06/11 00:40:17;;;;;;;4.43;4.13;;;23.60;84.70;;;;;;5042284;28;20553;-60
2023/06/11 00:42:45;;;;;;;4.63;4.33;;;23.60;84.70;;;;;;5037163;28;20451;-60
2023/06/11 00:45:12;;;;;;;4.60;4.30;;;23.60;84.80;;;;;;5035999;28;20551;-61
2023/06/11 00:47:39;;;;;;;7.50;4.43;;;23.60;84.80;;;;;;5041130;28;21010;-60
2023/06/11 00:50:08;;;;;;;4.90;4.50;;;23.60;84.70;;;;;;5038608;28;20516;-60
2023/06/11 00:52:36;;;;;;;4.10;3.80;;;23.60;84.80;;;;;;5039596;28;20535;-61
2023/06/11 00:55:03;;;;;;;4.13;3.77;;;23.60;84.80;;;;;;5042205;28;21599;-61
2023/06/11 00:57:31;;;;;;;5.00;4.60;;;23.60;84.80;;;;;;5039032;28;20489;-60
2023/06/11 00:59:58;;;;;;;4.47;4.10;;;23.60;84.80;;;;;;5038563;28;20823;-60
2023/06/11 01:02:31;;;;;;;4.07;3.77;;;23.60;84.70;;;;;;5039604;28;20872;-60
2023/06/11 01:05:00;;;;;;;4.50;4.20;;;23.60;84.80;;;;;;5039053;28;20470;-60
2023/06/11 01:07:31;;;;;;;4.47;4.13;;;23.60;84.80;;;;;;5037639;28;20516;-61
2023/06/11 01:09:59;;;;;;;4.40;4.10;;;23.60;84.80;;;;;;5037477;28;20645;-60
2023/06/11 01:12:26;;;;;;;3.60;3.37;;;23.60;84.70;;;;;;5040429;28;20457;-61
2023/06/11 01:14:53;;;;;;;5.00;4.63;;;23.60;84.80;;;;;;5040633;28;20524;-60
2023/06/11 01:17:29;;;;;;;4.63;4.27;;;23.60;84.80;;;;;;5037302;28;20467;-61
2023/06/11 01:20:10;;;;;;;4.60;4.20;;;23.60;84.80;;;;;;5045649;28;20624;-60
2023/06/11 01:22:55;;;;;;;4.37;4.07;;;23.60;84.80;;;;;;5045164;28;20543;-61
2023/06/11 01:25:31;;;;;;;4.20;3.90;;;23.60;84.80;;;;;;5041478;28;20857;-61
2023/06/11 01:28:06;;;;;;;4.77;4.37;;;23.60;84.80;;;;;;5040400;28;20562;-61
2023/06/11 01:30:37;;;;;;;4.40;4.10;;;23.60;84.80;;;;;;5039613;28;20453;-60
2023/06/11 01:33:05;;;;;;;4.80;4.50;;;23.60;84.80;;;;;;5042047;28;20483;-62
2023/06/11 01:35:33;;;;;;;4.53;4.23;;;23.60;84.90;;;;;;5038455;28;20531;-61
2023/06/11 01:38:00;;;;;;;4.60;4.20;;;23.60;84.80;;;;;;5042147;28;20461;-61
2023/06/11 01:40:27;;;;;;;4.03;3.70;;;23.50;84.70;;;;;;5041690;28;20458;-61
2023/06/11 01:42:55;;;;;;;4.87;4.47;;;23.60;84.80;;;;;;5041319;28;20462;-59
2023/06/11 01:45:23;;;;;;;4.30;4.00;;;23.50;84.60;;;;;;5041516;28;20465;-60
2023/06/11 01:47:50;;;;;;;4.20;3.90;;;23.60;84.80;;;;;;5038487;28;20454;-60
2023/06/11 01:50:17;;;;;;;5.17;4.77;;;23.60;84.80;;;;;;5038926;28;20454;-60
2023/06/11 01:52:44;;;;;;;4.43;4.13;;;23.50;84.70;;;;;;5041558;28;20458;-60
2023/06/11 01:55:11;;;;;;;5.30;4.90;;;23.50;84.60;;;;;;5046518;28;20485;-60
2023/06/11 01:57:40;;;;;;;5.13;4.40;;;23.60;84.80;;;;;;5041211;28;20461;-60
2023/06/11 02:00:09;;;;;;;4.63;4.33;;;23.60;84.90;;;;;;5038138;28;20477;-60
2023/06/11 02:02:38;;;;;;;3.13;2.93;;;23.60;84.80;;;;;;5038504;28;20470;-60
2023/06/11 02:05:05;;;;;;;4.13;3.83;;;23.60;84.80;;;;;;5034643;28;20458;-60
2023/06/11 02:07:32;;;;;;;4.40;4.10;;;23.60;84.90;;;;;;5041851;28;20462;-60
2023/06/11 02:09:58;;;;;;;4.23;3.93;;;23.50;84.70;;;;;;5040783;28;20516;-60
2023/06/11 02:12:25;;;;;;;4.50;4.23;;;23.60;84.80;;;;;;5040034;28;20520;-61
2023/06/11 02:14:52;;;;;;;4.30;4.00;;;23.50;84.80;;;;;;5040333;28;20496;-60
2023/06/11 02:17:18;;;;;;;4.00;3.70;;;23.50;84.80;;;;;;5037226;28;20469;-60
2023/06/11 02:19:47;;;;;;;3.90;3.60;;;23.60;84.90;;;;;;5032816;28;20462;-60
2023/06/11 02:22:13;;;;;;;4.10;3.77;;;23.60;84.90;;;;;;5036001;28;20465;-61
2023/06/11 02:24:40;;;;;;;4.20;3.90;;;23.60;84.90;;;;;;5040906;28;20960;-60
2023/06/11 02:27:07;;;;;;;4.00;3.70;;;23.50;84.80;;;;;;5035910;28;21027;-60
2023/06/11 02:29:34;;;;;;;4.03;3.73;;;23.50;84.80;;;;;;5030245;28;21038;-60
2023/06/11 02:32:01;;;;;;;4.10;3.80;;;23.50;84.80;;;;;;5049176;28;20840;-60
2023/06/11 02:34:28;;;;;;;4.70;4.30;;;23.50;84.80;;;;;;5042126;28;20458;-60
2023/06/11 02:36:56;;;;;;;4.07;3.77;;;23.50;84.80;;;;;;5044493;28;20469;-60
2023/06/11 02:39:22;;;;;;;3.67;3.47;;;23.50;84.80;;;;;;5042712;28;20471;-60
2023/06/11 02:41:49;;;;;;;4.30;4.00;;;23.60;84.90;;;;;;5042197;28;20466;-61
2023/06/11 02:44:16;;;;;;;4.00;3.70;;;23.50;84.90;;;;;;5043298;28;20562;-60
2023/06/11 02:46:43;;;;;;;3.97;3.67;;;23.50;84.90;;;;;;5045598;28;20458;-60
2023/06/11 02:49:09;;;;;;;4.20;3.90;;;23.50;84.80;;;;;;5043313;28;20485;-61
2023/06/11 02:51:36;;;;;;;4.73;3.97;;;23.50;84.80;;;;;;5042221;28;20458;-60
2023/06/11 02:54:04;;;;;;;3.70;3.40;;;23.50;84.90;;;;;;5041147;28;20445;-60
2023/06/11 02:56:31;;;;;;;3.70;3.40;;;23.50;84.90;;;;;;5040736;28;20466;-61
2023/06/11 02:58:57;;;;;;;3.63;3.40;;;23.50;84.90;;;;;;5041763;28;20470;-60
2023/06/11 03:01:24;;;;;;;4.00;3.70;;;23.50;85.40;;;;;;5042087;28;20472;-61
2023/06/11 03:03:51;;;;;;;4.40;4.10;;;23.50;84.90;;;;;;5040394;28;20493;-62
2023/06/11 03:06:18;;;;;;;4.50;4.20;;;23.50;84.90;;;;;;5044227;28;20453;-61
2023/06/11 03:08:45;;;;;;;3.83;3.53;;;23.50;84.90;;;;;;5043791;28;20482;-60
2023/06/11 03:11:13;;;;;;;3.53;3.33;;;23.60;85.00;;;;;;5047412;28;20992;-60
2023/06/11 03:13:39;;;;;;;4.03;3.73;;;23.60;85.00;;;;;;5036882;28;20523;-60
2023/06/11 03:16:06;;;;;;;4.07;3.77;;;23.60;85.00;;;;;;5036078;28;20457;-60
2023/06/11 03:18:33;;;;;;;3.83;3.53;;;23.50;84.90;;;;;;5035824;28;20479;-61
2023/06/11 03:20:59;;;;;;;3.30;3.10;;;23.50;84.90;;;;;;5044117;28;20465;-61
2023/06/11 03:23:26;;;;;;;4.40;4.00;;;23.60;85.00;;;;;;5041831;28;20929;-62
2023/06/11 03:25:53;;;;;;;4.40;4.10;;;23.60;85.00;;;;;;5044091;28;20458;-60
2023/06/11 03:28:21;;;;;;;4.23;3.93;;;23.60;85.00;;;;;;5044114;28;20454;-60
2023/06/11 03:30:47;;;;;;;4.23;3.93;;;23.50;84.90;;;;;;5043699;28;20536;-60
2023/06/11 03:33:14;;;;;;;4.40;4.10;;;23.50;84.90;;;;;;5035250;28;20540;-62
2023/06/11 03:35:40;;;;;;;3.93;3.63;;;23.50;84.90;;;;;;5036154;28;20462;-61
2023/06/11 03:38:08;;;;;;;4.57;4.17;;;23.50;84.90;;;;;;5038375;28;20454;-60
2023/06/11 03:40:34;;;;;;;3.87;3.43;;;23.50;84.90;;;;;;5038491;28;20552;-60
2023/06/11 03:43:01;;;;;;;4.03;3.73;;;23.50;84.90;;;;;;5030733;28;20518;-60
2023/06/11 03:45:29;;;;;;;3.77;3.47;;;23.60;85.00;;;;;;5036295;28;20477;-60
2023/06/11 03:47:57;;;;;;;4.20;3.90;;;23.50;84.90;;;;;;5043576;28;20459;-60
2023/06/11 03:50:24;;;;;;;3.67;3.17;;;23.50;84.90;;;;;;5038958;28;20569;-60
2023/06/11 03:52:51;;;;;;;2.87;2.67;;;23.60;85.00;;;;;;5040373;28;20462;-60
2023/06/11 03:55:18;;;;;;;3.43;3.13;;;23.50;84.90;;;;;;5045824;28;20994;-60
2023/06/11 03:57:45;;;;;;;4.03;3.73;;;23.50;84.90;;;;;;5039422;28;20450;-60
2023/06/11 04:00:13;;;;;;;3.80;3.50;;;23.50;84.90;;;;;;5035390;28;20545;-60
2023/06/11 04:02:41;;;;;;;4.33;4.00;;;23.50;85.00;;;;;;5050846;28;20473;-59
2023/06/11 04:05:08;;;;;;;4.33;4.07;;;23.50;84.90;;;;;;5039440;28;20448;-60
2023/06/11 04:07:35;;;;;;;4.37;4.07;;;23.50;84.90;;;;;;5039008;28;20461;-60
2023/06/11 04:10:02;;;;;;;3.80;3.50;;;23.50;84.90;;;;;;5037618;28;20824;-60
2023/06/11 04:12:29;;;;;;;4.20;3.90;;;23.60;85.10;;;;;;5039022;28;20460;-60
2023/06/11 04:14:55;;;;;;;3.70;3.50;;;23.50;84.90;;;;;;5039246;28;20724;-60
2023/06/11 04:17:22;;;;;;;4.60;4.20;;;23.50;84.90;;;;;;5037604;28;20792;-60
2023/06/11 04:19:50;;;;;;;3.53;3.23;;;23.50;84.90;;;;;;5030270;28;20544;-60
2023/06/11 04:22:17;;;;;;;4.03;3.73;;;23.50;84.90;;;;;;5038196;28;20524;-60
2023/06/11 04:24:43;;;;;;;3.27;3.07;;;23.50;85.00;;;;;;5038036;28;21223;-59
2023/06/11 04:27:11;;;;;;;4.57;4.03;;;23.50;85.00;;;;;;5041275;28;21737;-61
2023/06/11 04:29:37;;;;;;;4.30;4.00;;;23.50;85.00;;;;;;5036257;28;20481;-60
2023/06/11 04:32:05;;;;;;;4.10;3.80;;;23.50;85.00;;;;;;5045690;28;20454;-60
2023/06/11 04:34:33;;;;;;;4.00;3.50;;;23.50;85.00;;;;;;5040004;28;20446;-60
2023/06/11 04:37:01;;;;;;;3.30;3.10;;;23.50;85.00;;;;;;5038799;28;20969;-60
2023/06/11 04:39:28;;;;;;;4.10;3.80;;;23.50;85.00;;;;;;5037658;28;20831;-60
2023/06/11 04:41:55;;;;;;;3.20;3.00;;;23.50;85.00;;;;;;5038257;28;20969;-60
2023/06/11 04:44:22;;;;;;;3.67;3.40;;;23.50;85.00;;;;;;5037565;28;20980;-59
2023/06/11 04:46:48;;;;;;;4.03;3.80;;;23.50;85.00;;;;;;5040854;28;20488;-59
2023/06/11 04:49:20;;;;;;;4.10;3.70;;;23.50;85.00;;;;;;5035655;28;20477;-59
2023/06/11 04:51:48;;;;;;;4.23;3.93;;;23.50;85.00;;;;;;5038174;28;20468;-59
2023/06/11 04:54:17;;;;;;;3.80;3.50;;;23.50;85.00;;;;;;5046871;28;20454;-59
2023/06/11 04:56:44;;;;;;;4.23;3.83;;;23.50;85.00;;;;;;5040138;28;20462;-60
2023/06/11 04:59:10;;;;;;;3.57;3.37;;;23.50;85.00;;;;;;5035954;28;20464;-59
2023/06/11 05:01:46;;;;;;;3.20;3.00;;;23.50;85.00;;;;;;5044785;28;20537;-59
2023/06/11 05:04:14;;;;;;;3.97;3.70;;;23.50;85.10;;;;;;5040876;28;20560;-59
2023/06/11 05:06:44;;;;;;;3.90;3.60;;;23.50;85.00;;;;;;5033102;28;20892;-59
2023/06/11 05:09:11;;;;;;;3.27;3.07;;;23.50;85.10;;;;;;5036904;28;20492;-60
2023/06/11 05:11:40;;;;;;;4.40;4.10;;;23.50;85.00;;;;;;5039042;28;20485;-59
2023/06/11 05:14:07;;;;;;;3.33;3.13;;;23.50;85.00;;;;;;5042426;28;20477;-60
2023/06/11 05:16:34;;;;;;;3.83;3.53;;;23.50;85.10;;;;;;5038056;28;20817;-59
2023/06/11 05:19:01;;;;;;;3.87;3.57;;;23.50;85.10;;;;;;5034825;28;20474;-60
2023/06/11 05:21:28;;;;;;;3.47;3.17;;;23.50;85.00;;;;;;5039682;28;20490;-60
2023/06/11 05:23:56;;;;;;;3.77;3.47;;;23.50;85.10;;;;;;5039168;28;20481;-60
2023/06/11 05:26:31;;;;;;;3.70;3.40;;;23.50;85.00;;;;;;5038506;28;20477;-59
2023/06/11 05:28:59;;;;;;;3.63;3.40;;;23.50;85.10;;;;;;5032065;28;20476;-59
2023/06/11 05:31:26;;;;;;;3.20;3.00;;;23.50;85.10;;;;;;5036862;28;20953;-61
2023/06/11 05:33:52;;;;;;;3.87;3.47;;;23.50;85.10;;;;;;5034600;28;20481;-59
2023/06/11 05:36:20;;;;;;;3.93;3.63;;;23.50;85.10;;;;;;5041988;28;20466;-60
2023/06/11 05:38:47;;;;;;;4.03;3.73;;;23.50;85.10;;;;;;5040657;28;21051;-60
2023/06/11 05:41:14;;;;;;;4.37;4.00;;;23.50;85.10;;;;;;5036202;28;20541;-61
2023/06/11 05:43:41;;;;;;;4.20;3.90;;;23.50;85.10;;;;;;5035388;28;21046;-61
2023/06/11 05:46:09;;;;;;;4.80;4.40;;;23.50;85.10;;;;;;5039122;28;20485;-61
2023/06/11 05:48:36;;;;;;;3.27;3.00;;;23.50;85.10;;;;;;5036274;28;20465;-61
2023/06/11 05:51:03;;;;;;;3.30;3.07;;;23.50;85.10;;;;;;5040182;28;20482;-60
2023/06/11 05:53:30;;;;;;;4.00;3.70;;;23.50;85.10;;;;;;5048089;28;20461;-61
2023/06/11 05:55:56;;;;;;;3.67;3.37;;;23.50;85.10;;;;;;5042168;28;20523;-60
2023/06/11 05:58:23;;;;;;;4.10;3.80;;;23.50;85.10;;;;;;5033581;28;20822;-60
2023/06/11 06:00:51;;;;;;;3.60;3.30;;;23.50;85.20;;;;;;5032160;28;20469;-61
2023/06/11 06:03:19;;;;;;;3.53;3.33;;;23.50;85.10;;;;;;5035666;28;20456;-62
2023/06/11 06:05:46;;;;;;;4.30;4.00;;;23.50;85.10;;;;;;5045807;28;20531;-60
2023/06/11 06:08:13;;;;;;;3.70;3.40;;;23.50;85.20;;;;;;5046370;28;20464;-60
2023/06/11 06:10:39;;;;;;;3.87;3.60;;;23.50;85.10;;;;;;5040187;28;20481;-60
2023/06/11 06:13:06;;;;;;;3.73;3.43;;;23.50;85.10;;;;;;5042457;28;20457;-61
2023/06/11 06:15:32;;;;;;;4.47;4.17;;;23.50;85.20;;;;;;5035870;28;20476;-60
2023/06/11 06:17:59;;;;;;;4.17;3.87;;;23.50;85.20;;;;;;5044389;28;20482;-61
2023/06/11 06:20:27;;;;;;;4.00;3.70;;;23.50;85.30;;;;;;5043688;28;20917;-61
2023/06/11 06:22:54;;;;;;;3.13;2.93;;;23.50;85.20;;;;;;5045780;28;20485;-61
2023/06/11 06:25:24;;;;;;;4.40;4.00;;;23.50;85.30;;;;;;5040322;28;20486;-60
2023/06/11 06:27:51;;;;;;;3.50;3.30;;;23.50;85.30;;;;;;5038345;28;20457;-60
2023/06/11 06:30:18;;;;;;;3.57;3.27;;;23.50;85.30;;;;;;5042012;28;20572;-61
2023/06/11 06:32:45;;;;;;;3.87;3.57;;;23.50;85.30;;;;;;5039496;28;20449;-60
2023/06/11 06:35:12;;;;;;;4.20;3.90;;;23.50;85.30;;;;;;5041255;28;21032;-61
2023/06/11 06:37:40;;;;;;;4.60;4.30;;;23.50;85.30;;;;;;5042443;28;20457;-60
2023/06/11 06:40:08;;;;;;;4.13;3.83;;;23.50;85.30;;;;;;5050039;28;20486;-61
2023/06/11 06:42:35;;;;;;;3.70;3.40;;;23.50;85.40;;;;;;5042804;28;20458;-60
2023/06/11 06:45:01;;;;;;;3.27;3.07;;;23.50;85.40;;;;;;5036878;28;20883;-60
2023/06/11 06:47:28;;;;;;;3.63;3.43;;;23.50;85.40;;;;;;5043781;28;20462;-59
2023/06/11 06:49:55;;;;;;;3.30;3.10;;;23.50;85.40;;;;;;5038678;28;20478;-59
2023/06/11 06:52:21;;;;;;;3.50;3.30;;;23.50;85.40;;;;;;5044023;28;20466;-59
2023/06/11 06:54:51;;;;;;;3.43;3.23;;;23.50;85.40;;;;;;5044411;28;20454;-60
2023/06/11 06:57:18;;;;;;;4.23;3.93;;;23.50;85.50;;;;;;5038021;28;20569;-59
2023/06/11 06:59:44;;;;;;;3.77;3.57;;;23.50;85.40;;;;;;5043281;28;20492;-60
2023/06/11 07:02:11;;;;;;;4.00;3.70;;;23.50;85.40;;;;;;5053606;28;20470;-59
2023/06/11 07:04:38;;;;;;;4.43;4.13;;;23.50;85.40;;;;;;5049020;28;20465;-59
2023/06/11 07:07:05;;;;;;;3.60;3.30;;;23.50;85.50;;;;;;5048636;28;20549;-60
2023/06/11 07:09:32;;;;;;;4.20;3.90;;;23.50;85.50;;;;;;5045891;28;20853;-59
2023/06/11 07:12:00;;;;;;;4.23;3.83;;;23.50;85.50;;;;;;5047114;28;20826;-59
2023/06/11 07:14:26;;;;;;;3.40;3.20;;;23.50;85.50;;;;;;5050729;28;20470;-60
2023/06/11 07:16:53;;;;;;;3.50;3.30;;;23.50;85.50;;;;;;5051051;28;20466;-59
2023/06/11 07:19:20;;;;;;;3.70;3.50;;;23.50;85.50;;;;;;5047265;28;22526;-60
2023/06/11 07:21:46;;;;;;;3.80;3.60;;;23.50;85.50;;;;;;5050071;28;20462;-60
2023/06/11 07:24:14;;;;;;;3.40;3.10;;;23.50;85.50;;;;;;5047886;28;20985;-60
2023/06/11 07:26:42;;;;;;;4.30;3.63;;;23.50;85.70;;;;;;5050020;28;20548;-60
2023/06/11 07:29:10;;;;;;;3.80;3.50;;;23.50;85.70;;;;;;5045970;28;20550;-60
2023/06/11 07:31:37;;;;;;;4.47;4.07;;;23.50;85.80;;;;;;5040762;28;20497;-60
2023/06/11 07:34:04;;;;;;;3.50;3.30;;;23.60;86.20;;;;;;5037366;28;20455;-60
2023/06/11 07:36:31;;;;;;;4.07;3.77;;;23.60;86.40;;;;;;5036116;28;20950;-60
2023/06/11 07:38:58;;;;;;;4.63;4.27;;;23.60;87.30;;;;;;5043882;28;20821;-60
2023/06/11 07:41:24;;;;;;;4.60;4.20;;;23.60;87.00;;;;;;5048275;28;20802;-60
2023/06/11 07:43:51;;;;;;;4.73;4.33;;;23.60;87.10;;;;;;5043706;28;20458;-60
2023/06/11 07:46:19;;;;;;;5.13;4.70;;;23.60;87.10;;;;;;5042201;28;20461;-61
2023/06/11 07:48:48;;;;;;;5.47;4.90;;;23.60;87.20;;;;;;5033819;28;20455;-61
2023/06/11 07:51:15;;;;;;;4.70;4.27;;;23.60;87.30;;;;;;5040540;28;20481;-60
2023/06/11 07:53:44;;;;;;;5.33;4.83;;;23.60;87.40;;;;;;5042353;28;20680;-61
2023/06/11 07:56:11;;;;;;;5.60;5.07;;;23.60;87.30;;;;;;5044653;28;20810;-61
2023/06/11 07:58:37;;;;;;;6.33;5.83;;;23.60;87.30;;;;;;5035895;28;20461;-61
2023/06/11 08:01:04;;;;;;;6.00;5.50;;;23.60;87.30;;;;;;5032629;28;20563;-61
2023/06/11 08:03:33;;;;;;;6.20;4.63;;;23.60;87.30;;;;;;5041550;28;20455;-61
2023/06/11 08:06:00;;;;;;;7.87;5.40;;;23.60;87.30;;;;;;5042162;28;21023;-61
2023/06/11 08:08:26;;;;;;;5.43;5.03;;;23.60;87.30;;;;;;5039120;28;20454;-60
2023/06/11 08:10:53;;;;;;;7.80;5.10;;;23.60;87.30;;;;;;5031157;28;20489;-60
2023/06/11 08:13:21;;;;;;;7.23;5.90;;;23.60;87.30;;;;;;5036313;28;21443;-61
2023/06/11 08:15:48;;;;;;;5.87;5.37;;;23.60;87.30;;;;;;5034391;28;20520;-61
2023/06/11 08:18:15;;;;;;;5.83;5.33;;;23.60;87.30;;;;;;5034531;28;20481;-61
2023/06/11 08:20:43;;;;;;;6.47;5.80;;;23.60;87.40;;;;;;5043402;28;20462;-60
2023/06/11 08:23:10;;;;;;;8.47;6.33;;;23.60;87.60;;;;;;5040608;28;20555;-61
2023/06/11 08:25:37;;;;;;;5.53;5.03;;;23.60;87.70;;;;;;5043743;28;20454;-60
2023/06/11 08:28:04;;;;;;;5.80;5.27;;;23.60;87.60;;;;;;5035364;28;20548;-60
2023/06/11 08:30:30;;;;;;;5.80;5.30;;;23.60;87.70;;;;;;5033331;28;20487;-61
2023/06/11 08:32:57;;;;;;;7.70;5.93;;;23.60;87.70;;;;;;5044341;28;20516;-60
2023/06/11 08:35:23;;;;;;;6.97;6.37;;;23.60;87.70;;;;;;5035034;28;20591;-60
2023/06/11 08:37:52;;;;;;;5.70;5.30;;;23.60;87.70;;;;;;5035435;28;20808;-60
2023/06/11 08:40:19;;;;;;;6.90;6.20;;;23.60;87.80;;;;;;5040977;28;20896;-60
2023/06/11 08:42:46;;;;;;;6.67;6.00;;;23.70;87.90;;;;;;5033961;28;20830;-60
2023/06/11 08:45:13;;;;;;;5.77;5.37;;;23.60;87.70;;;;;;5037086;28;20731;-60
2023/06/11 08:47:48;;;;;;;5.50;5.10;;;23.70;87.90;;;;;;5039135;28;20461;-60
2023/06/11 08:50:15;;;;;;;8.17;5.90;;;23.70;87.90;;;;;;5034524;28;20488;-60
2023/06/11 08:52:43;;;;;;;6.60;6.10;;;23.70;87.90;;;;;;5038777;28;20970;-60
2023/06/11 08:55:12;;;;;;;6.03;5.43;;;23.70;87.90;;;;;;5039104;28;20454;-60
2023/06/11 08:57:38;;;;;;;6.97;6.23;;;23.70;88.00;;;;;;5033485;28;20458;-60
2023/06/11 09:00:09;;;;;;;6.97;6.27;;;23.70;88.00;;;;;;5035312;28;20465;-60
2023/06/11 09:02:36;;;;;;;6.27;5.70;;;23.70;87.90;;;;;;5038683;28;20454;-60
2023/06/11 09:05:03;;;;;;;6.10;5.60;;;23.70;87.90;;;;;;5044653;28;20825;-60
2023/06/11 09:07:30;;;;;;;6.57;6.00;;;23.70;87.90;;;;;;5038718;28;20489;-60
2023/06/11 09:10:04;;;;;;;6.63;6.10;;;23.70;87.90;;;;;;5040755;28;20976;-60
2023/06/11 09:12:32;;;;;;;7.10;6.40;;;23.70;87.90;;;;;;5035565;28;20457;-61
2023/06/11 09:14:59;;;;;;;6.37;5.87;;;23.70;87.90;;;;;;5036617;28;20876;-60
2023/06/11 09:17:33;;;;;;;7.47;6.97;;;23.70;87.90;;;;;;5036447;28;20507;-61
2023/06/11 09:20:05;;;;;;;6.23;5.80;;;23.70;87.90;;;;;;5039777;28;20462;-60
2023/06/11 09:22:32;;;;;;;6.40;5.90;;;23.70;87.90;;;;;;5035053;28;20537;-61
2023/06/11 09:25:03;;;;;;;6.13;5.63;;;23.70;87.90;;;;;;5035245;28;20478;-60
2023/06/11 09:27:32;;;;;;;6.77;6.17;;;23.70;87.90;;;;;;5036869;28;20462;-59
2023/06/11 09:30:08;;;;;;;8.33;7.30;;;23.70;87.90;;;;;;5037569;28;20552;-61
2023/06/11 09:32:38;;;;;;;10.23;6.47;;;23.70;88.00;;;;;;5037738;28;20449;-62
2023/06/11 09:35:06;;;;;;;6.80;6.10;;;23.70;87.90;;;;;;5032566;28;20577;-62
2023/06/11 09:37:40;;;;;;;6.90;5.90;;;23.70;88.00;;;;;;5040166;28;20503;-61
2023/06/11 09:40:09;;;;;;;6.97;6.47;;;23.70;88.00;;;;;;5034764;28;20459;-61
2023/06/11 09:42:38;;;;;;;6.73;6.13;;;23.70;88.10;;;;;;5033524;28;21025;-62
2023/06/11 09:45:07;;;;;;;6.90;5.90;;;23.70;88.00;;;;;;5033358;28;20449;-61
2023/06/11 09:47:37;;;;;;;7.87;6.90;;;23.70;88.00;;;;;;5042654;28;20484;-61
2023/06/11 09:50:06;;;;;;;6.30;5.80;;;23.70;87.90;;;;;;5047220;28;20457;-61
2023/06/11 09:52:35;;;;;;;6.40;5.90;;;23.70;88.00;;;;;;5046652;28;20997;-61
2023/06/11 09:55:03;;;;;;;6.17;5.70;;;23.80;88.10;;;;;;5040912;28;20469;-60
2023/06/11 09:57:31;;;;;;;7.00;6.30;;;23.70;88.00;;;;;;5039663;28;20451;-61
2023/06/11 10:00:00;;;;;;;7.00;6.40;;;23.80;88.10;;;;;;5049683;28;20496;-61
2023/06/11 10:02:27;;;;;;;5.83;5.43;;;23.70;88.00;;;;;;5045001;28;20462;-62
2023/06/11 10:04:55;;;;;;;6.73;6.20;;;23.70;88.00;;;;;;5042935;28;20470;-60
2023/06/11 10:07:24;;;;;;;7.13;6.53;;;23.70;88.00;;;;;;5043409;28;20507;-61
2023/06/11 10:09:53;;;;;;;6.63;6.00;;;23.80;88.10;;;;;;5042807;28;20466;-61
2023/06/11 10:12:21;;;;;;;6.47;5.90;;;23.80;88.10;;;;;;5043975;28;20996;-61
2023/06/11 10:14:51;;;;;;;6.53;5.93;;;23.70;88.00;;;;;;5035379;28;20906;-61
2023/06/11 10:17:19;;;;;;;6.47;5.97;;;23.80;88.00;;;;;;5038282;28;20573;-61
2023/06/11 10:19:48;;;;;;;6.40;5.80;;;23.70;87.90;;;;;;5033098;28;20973;-61
2023/06/11 10:22:21;;;;;;;7.27;6.57;;;23.70;87.90;;;;;;5030135;28;20459;-60
2023/06/11 10:25:00;;;;;;;6.13;5.60;;;23.70;87.90;;;;;;5041128;28;20517;-61
2023/06/11 10:27:36;;;;;;;10.03;7.70;;;23.80;88.00;;;;;;5044553;28;20489;-61
2023/06/11 10:30:04;;;;;;;6.57;6.07;;;23.70;87.90;;;;;;5030327;28;20540;-60
2023/06/11 10:32:33;;;;;;;7.10;6.50;;;23.70;87.80;;;;;;5038323;28;20993;-61
2023/06/11 10:35:03;;;;;;;5.70;5.20;;;23.70;87.90;;;;;;5042959;28;20461;-61
2023/06/11 10:37:35;;;;;;;6.40;5.80;;;23.70;87.80;;;;;;5037630;28;20992;-61
2023/06/11 10:40:03;;;;;;;6.53;6.03;;;23.70;87.80;;;;;;5040404;28;20454;-61
2023/06/11 10:42:35;;;;;;;6.80;6.30;;;23.70;87.80;;;;;;5038422;28;20460;-61
2023/06/11 10:45:08;;;;;;;6.13;5.63;;;23.70;87.80;;;;;;5038132;28;20578;-61
2023/06/11 10:47:44;;;;;;;5.87;5.47;;;23.80;87.90;;;;;;5043493;28;20938;-61
2023/06/11 10:50:12;;;;;;;6.30;5.70;;;23.80;87.90;;;;;;5045995;28;20464;-61
2023/06/11 10:52:48;;;;;;;6.20;5.80;;;23.80;87.90;;;;;;5044875;28;21080;-61
2023/06/11 10:55:16;;;;;;;5.40;5.00;;;23.80;87.90;;;;;;5043233;28;20466;-61
2023/06/11 10:57:43;;;;;;;7.40;5.70;;;23.80;87.80;;;;;;5045541;28;20454;-61
2023/06/11 11:00:11;;;;;;;6.40;5.90;;;23.80;87.80;;;;;;5042149;28;21143;-60
2023/06/11 11:02:39;;;;;;;6.70;6.10;;;23.80;87.60;;;;;;5044924;28;20545;-60
2023/06/11 11:05:10;;;;;;;8.53;6.60;;;23.80;87.60;;;;;;5043443;28;20460;-60
2023/06/11 11:07:37;;;;;;;6.73;6.13;;;23.80;87.30;;;;;;5047085;28;20822;-60
2023/06/11 11:10:06;;;;;;;6.50;6.00;;;23.80;87.90;;;;;;5041742;28;20708;-61
2023/06/11 11:12:38;;;;;;;7.07;6.37;;;23.80;86.90;;;;;;5046703;28;20903;-60
2023/06/11 11:15:06;;;;;;;6.90;6.20;;;23.80;86.50;;;;;;5040354;28;20461;-60
2023/06/11 11:17:33;;;;;;;6.57;5.97;;;23.80;85.90;;;;;;5049543;28;21011;-61
2023/06/11 11:20:00;;;;;;;6.00;5.50;;;23.80;85.40;;;;;;5048712;28;20523;-60
2023/06/11 11:22:29;;;;;;;6.30;5.70;;;23.80;85.00;;;;;;5044093;28;20466;-62
2023/06/11 11:25:00;;;;;;;7.43;6.80;;;23.80;84.60;;;;;;5043105;28;20582;-60
2023/06/11 11:27:26;;;;;;;6.77;6.20;;;23.80;84.20;;;;;;5045499;28;20457;-61
2023/06/11 11:29:56;;;;;;;10.50;5.90;;;23.80;83.70;;;;;;5046999;28;20942;-60
2023/06/11 11:32:26;;;;;;;5.40;5.00;;;23.80;83.60;;;;;;5045809;28;20514;-60
2023/06/11 11:34:53;;;;;;;7.20;6.60;;;23.80;83.20;;;;;;5039983;28;20450;-61
2023/06/11 11:37:19;;;;;;;5.90;5.30;;;23.80;82.80;;;;;;5052930;28;20468;-61
2023/06/11 11:39:48;;;;;;;6.10;5.50;;;23.80;82.30;;;;;;5039772;28;20458;-60
2023/06/11 11:42:15;;;;;;;7.43;6.20;;;23.80;82.20;;;;;;5044865;28;20852;-60
2023/06/11 11:44:42;;;;;;;6.50;6.00;;;23.80;81.90;;;;;;5038498;28;20523;-60
2023/06/11 11:47:10;;;;;;;5.73;5.23;;;23.80;81.50;;;;;;5034916;28;20462;-62
2023/06/11 11:49:37;;;;;;;6.53;6.03;;;23.80;81.60;;;;;;5037620;28;20458;-60
2023/06/11 11:52:05;;;;;;;6.90;5.50;;;23.70;81.40;;;;;;5038648;28;20489;-59
2023/06/11 11:54:32;;;;;;;6.67;6.07;;;23.70;81.20;;;;;;5040976;28;20454;-60
2023/06/11 11:57:02;;;;;;;6.50;5.87;;;23.80;81.20;;;;;;5045137;28;20453;-60
2023/06/11 11:59:29;;;;;;;6.20;5.53;;;23.80;80.90;;;;;;5042554;28;20461;-60
2023/06/11 12:01:56;;;;;;;6.90;6.30;;;23.70;80.80;;;;;;5040572;28;20573;-59
2023/06/11 12:04:33;;;;;;;6.43;5.87;;;23.80;80.60;;;;;;5042078;28;20544;-60
2023/06/11 12:07:03;;;;;;;5.37;4.97;;;23.80;80.30;;;;;;5046034;28;20477;-60
2023/06/11 12:09:30;;;;;;;8.20;6.17;;;23.80;79.80;;;;;;5042318;28;20544;-60
2023/06/11 12:11:57;;;;;;;9.00;5.73;;;23.80;79.70;;;;;;5046179;28;20468;-60
2023/06/11 12:14:25;;;;;;;6.20;5.43;;;23.80;79.80;;;;;;5044176;28;20462;-60
2023/06/11 12:16:51;;;;;;;8.70;5.30;;;23.80;80.20;;;;;;5047450;28;20454;-60
2023/06/11 12:19:18;;;;;;;5.90;5.40;;;23.80;79.30;;;;;;5040887;28;20457;-59
2023/06/11 12:21:45;;;;;;;10.30;5.67;;;23.80;79.00;;;;;;5042473;28;20465;-59
2023/06/11 12:24:14;;;;;;;6.47;5.50;;;23.80;78.90;;;;;;5043519;28;20479;-60
2023/06/11 12:26:42;;;;;;;7.30;6.70;;;23.80;78.90;;;;;;5045376;28;20457;-61
2023/06/11 12:29:09;;;;;;;6.53;5.93;;;23.80;78.50;;;;;;5043095;28;20458;-60
2023/06/11 12:31:37;;;;;;;4.93;4.53;;;23.80;78.10;;;;;;5042868;28;20973;-59
2023/06/11 12:34:04;;;;;;;5.50;5.10;;;23.80;78.10;;;;;;5046985;28;20508;-59
2023/06/11 12:36:32;;;;;;;6.27;5.50;;;23.80;77.90;;;;;;5047088;28;20945;-60
2023/06/11 12:39:00;;;;;;;5.07;4.37;;;23.80;77.50;;;;;;5046399;28;20969;-59
2023/06/11 12:41:27;;;;;;;6.57;6.00;;;23.80;77.60;;;;;;5048487;28;20492;-59
2023/06/11 12:43:54;;;;;;;6.00;5.50;;;23.80;77.40;;;;;;5038538;28;20977;-60
2023/06/11 12:46:20;;;;;;;7.03;5.87;;;23.80;78.10;;;;;;5042570;28;20461;-59
2023/06/11 12:48:48;;;;;;;5.83;5.23;;;23.80;77.20;;;;;;5042909;28;20454;-60